sensor_id;sensor_type;location;lat;lon;timestamp;temperature;humidity
21801;DHT22;11062;51.164;16.924;2023-04-12T13:52:50;38.30;24.70
21801;DHT22;11062;51.164;16.924;2023-04-12T13:55:16;36.50;25.60
21801;DHT22;11062;51.164;16.924;2023-04-12T13:57:44;37.80;25.10
21801;DHT22;11062;51.164;16.924;2023-04-12T14:00:10;38.50;25.50
21801;DHT22;11062;51.164;16.924;2023-04-12T14:02:36;38.60;24.90
21801;DHT22;11062;51.164;16.924;2023-04-12T14:05:03;38.50;25.50
21801;DHT22;11062;51.164;16.924;2023-04-12T14:07:29;38.60;25.00
21801;DHT22;11062;51.164;16.924;2023-04-12T14:09:58;38.70;25.00
21801;DHT22;11062;51.164;16.924;2023-04-12T14:12:24;37.10;24.00
21801;DHT22;11062;51.164;16.924;2023-04-12T14:14:52;38.60;25.30
21801;DHT22;11062;51.164;16.924;2023-04-12T15:02:24;36.80;24.60
21801;DHT22;11062;51.164;16.924;2023-04-12T15:04:50;37.50;26.10
21801;DHT22;11062;51.164;16.924;2023-04-12T15:07:19;37.80;25.90
21801;DHT22;11062;51.164;16.924;2023-04-12T15:09:45;38.20;25.80
21801;DHT22;11062;51.164;16.924;2023-04-12T15:12:17;38.20;25.20
21801;DHT22;11062;51.164;16.924;2023-04-12T15:14:48;37.90;25.20
21801;DHT22;11062;51.164;16.924;2023-04-12T15:17:14;38.00;24.40
21801;DHT22;11062;51.164;16.924;2023-04-12T15:19:46;38.50;25.00
21801;DHT22;11062;51.164;16.924;2023-04-12T15:22:12;37.60;25.20
21801;DHT22;11062;51.164;16.924;2023-04-12T15:24:41;37.60;25.20
21801;DHT22;11062;51.164;16.924;2023-04-12T15:27:06;36.70;25.40
21801;DHT22;11062;51.164;16.924;2023-04-12T15:29:33;36.40;26.00
21801;DHT22;11062;51.164;16.924;2023-04-12T15:32:00;37.40;26.50
21801;DHT22;11062;51.164;16.924;2023-04-12T15:34:26;36.30;25.80
21801;DHT22;11062;51.164;16.924;2023-04-12T15:37:01;36.70;25.90
21801;DHT22;11062;51.164;16.924;2023-04-12T15:39:27;36.00;24.70
21801;DHT22;11062;51.164;16.924;2023-04-12T15:41:53;36.90;27.20
21801;DHT22;11062;51.164;16.924;2023-04-12T15:44:22;37.10;27.40
21801;DHT22;11062;51.164;16.924;2023-04-12T15:46:57;36.00;26.00
21801;DHT22;11062;51.164;16.924;2023-04-12T15:49:23;36.60;25.70
21801;DHT22;11062;51.164;16.924;2023-04-12T15:51:53;36.80;25.40
21801;DHT22;11062;51.164;16.924;2023-04-12T15:54:22;37.20;25.60
21801;DHT22;11062;51.164;16.924;2023-04-12T15:56:51;37.70;25.90
21801;DHT22;11062;51.164;16.924;2023-04-12T15:59:19;36.20;25.60
21801;DHT22;11062;51.164;16.924;2023-04-12T16:01:46;36.70;26.50
21801;DHT22;11062;51.164;16.924;2023-04-12T16:04:13;37.30;26.70
21801;DHT22;11062;51.164;16.924;2023-04-12T16:06:41;37.50;26.60
21801;DHT22;11062;51.164;16.924;2023-04-12T16:09:07;36.90;26.70
21801;DHT22;11062;51.164;16.924;2023-04-12T16:11:33;36.30;26.30
21801;DHT22;11062;51.164;16.924;2023-04-12T16:13:59;35.90;26.50
21801;DHT22;11062;51.164;16.924;2023-04-12T16:16:28;35.60;26.40
21801;DHT22;11062;51.164;16.924;2023-04-12T16:18:55;36.00;27.20
21801;DHT22;11062;51.164;16.924;2023-04-12T16:21:22;37.00;27.00
21801;DHT22;11062;51.164;16.924;2023-04-12T16:23:51;37.10;26.80
21801;DHT22;11062;51.164;16.924;2023-04-12T16:26:20;36.60;26.60
21801;DHT22;11062;51.164;16.924;2023-04-12T16:28:49;36.50;26.60
21801;DHT22;11062;51.164;16.924;2023-04-12T16:31:22;37.00;26.70
21801;DHT22;11062;51.164;16.924;2023-04-12T16:33:50;35.90;27.20
21801;DHT22;11062;51.164;16.924;2023-04-12T16:36:16;35.00;26.30
21801;DHT22;11062;51.164;16.924;2023-04-12T16:38:43;35.30;26.90
21801;DHT22;11062;51.164;16.924;2023-04-12T16:41:12;34.00;26.90
21801;DHT22;11062;51.164;16.924;2023-04-12T16:43:38;35.30;29.10
21801;DHT22;11062;51.164;16.924;2023-04-12T16:46:07;33.50;28.60
21801;DHT22;11062;51.164;16.924;2023-04-12T16:48:33;33.90;30.00
21801;DHT22;11062;51.164;16.924;2023-04-12T16:51:08;32.40;28.80
21801;DHT22;11062;51.164;16.924;2023-04-12T16:53:35;33.30;29.70
21801;DHT22;11062;51.164;16.924;2023-04-12T16:56:04;31.50;29.50
21801;DHT22;11062;51.164;16.924;2023-04-12T16:58:30;32.20;30.10
21801;DHT22;11062;51.164;16.924;2023-04-12T17:01:00;31.00;30.60
21801;DHT22;11062;51.164;16.924;2023-04-12T17:03:26;31.50;29.50
21801;DHT22;11062;51.164;16.924;2023-04-12T17:05:55;30.50;30.20
21801;DHT22;11062;51.164;16.924;2023-04-12T17:08:24;31.80;31.50
21801;DHT22;11062;51.164;16.924;2023-04-12T17:10:52;31.40;32.50
21801;DHT22;11062;51.164;16.924;2023-04-12T17:13:21;31.10;30.40
21801;DHT22;11062;51.164;16.924;2023-04-12T17:15:47;29.70;32.00
21801;DHT22;11062;51.164;16.924;2023-04-12T17:18:13;31.40;33.70
21801;DHT22;11062;51.164;16.924;2023-04-12T17:20:40;30.00;32.10
21801;DHT22;11062;51.164;16.924;2023-04-12T17:23:06;31.40;32.60
21801;DHT22;11062;51.164;16.924;2023-04-12T17:25:32;30.10;32.40
21801;DHT22;11062;51.164;16.924;2023-04-12T17:28:01;31.20;33.00
21801;DHT22;11062;51.164;16.924;2023-04-12T17:30:28;31.00;31.70
21801;DHT22;11062;51.164;16.924;2023-04-12T17:32:57;30.00;30.70
21801;DHT22;11062;51.164;16.924;2023-04-12T17:35:25;30.80;32.70
21801;DHT22;11062;51.164;16.924;2023-04-12T17:37:51;29.50;31.40
21801;DHT22;11062;51.164;16.924;2023-04-12T17:40:20;31.50;32.80
21801;DHT22;11062;51.164;16.924;2023-04-12T17:42:48;30.20;32.10
21801;DHT22;11062;51.164;16.924;2023-04-12T17:45:14;29.70;30.60
21801;DHT22;11062;51.164;16.924;2023-04-12T17:47:42;29.30;32.20
21801;DHT22;11062;51.164;16.924;2023-04-12T17:50:12;29.60;32.40
21801;DHT22;11062;51.164;16.924;2023-04-12T17:52:39;30.90;31.80
21801;DHT22;11062;51.164;16.924;2023-04-12T17:55:08;30.50;32.30
21801;DHT22;11062;51.164;16.924;2023-04-12T17:57:34;29.40;31.10
21801;DHT22;11062;51.164;16.924;2023-04-12T18:00:04;30.30;31.80
21801;DHT22;11062;51.164;16.924;2023-04-12T18:02:34;30.50;31.80
21801;DHT22;11062;51.164;16.924;2023-04-12T18:05:00;31.20;33.60
21801;DHT22;11062;51.164;16.924;2023-04-12T18:07:26;30.20;32.80
21801;DHT22;11062;51.164;16.924;2023-04-12T18:09:55;29.20;31.40
21801;DHT22;11062;51.164;16.924;2023-04-12T18:12:21;30.90;34.00
21801;DHT22;11062;51.164;16.924;2023-04-12T18:14:51;30.30;32.20
21801;DHT22;11062;51.164;16.924;2023-04-12T18:17:20;30.60;32.30
21801;DHT22;11062;51.164;16.924;2023-04-12T18:19:49;31.30;34.70
21801;DHT22;11062;51.164;16.924;2023-04-12T18:22:18;30.70;32.40
21801;DHT22;11062;51.164;16.924;2023-04-12T18:24:49;29.10;32.00
21801;DHT22;11062;51.164;16.924;2023-04-12T18:27:15;29.10;31.70
21801;DHT22;11062;51.164;16.924;2023-04-12T18:29:41;30.20;34.20
21801;DHT22;11062;51.164;16.924;2023-04-12T18:32:11;29.70;33.40
21801;DHT22;11062;51.164;16.924;2023-04-12T18:34:40;29.50;32.40
21801;DHT22;11062;51.164;16.924;2023-04-12T18:37:06;30.30;34.10
21801;DHT22;11062;51.164;16.924;2023-04-12T18:39:35;29.80;34.00
21801;DHT22;11062;51.164;16.924;2023-04-12T18:42:01;29.10;33.80
21801;DHT22;11062;51.164;16.924;2023-04-12T18:44:28;29.60;34.20
21801;DHT22;11062;51.164;16.924;2023-04-12T18:46:54;28.40;32.10
21801;DHT22;11062;51.164;16.924;2023-04-12T18:49:20;28.80;34.10
21801;DHT22;11062;51.164;16.924;2023-04-12T18:51:46;29.40;33.30
21801;DHT22;11062;51.164;16.924;2023-04-12T18:54:17;29.30;32.40
21801;DHT22;11062;51.164;16.924;2023-04-12T18:56:43;30.10;34.30
21801;DHT22;11062;51.164;16.924;2023-04-12T18:59:12;28.20;31.70
21801;DHT22;11062;51.164;16.924;2023-04-12T19:01:42;29.40;33.60
21801;DHT22;11062;51.164;16.924;2023-04-12T19:04:08;29.80;32.30
21801;DHT22;11062;51.164;16.924;2023-04-12T19:06:40;29.80;32.60
21801;DHT22;11062;51.164;16.924;2023-04-12T19:09:13;29.50;32.30
21801;DHT22;11062;51.164;16.924;2023-04-12T19:11:39;28.20;32.80
21801;DHT22;11062;51.164;16.924;2023-04-12T19:14:05;29.80;33.60
21801;DHT22;11062;51.164;16.924;2023-04-12T19:16:32;29.40;33.10
21801;DHT22;11062;51.164;16.924;2023-04-12T19:19:01;29.20;32.80
21801;DHT22;11062;51.164;16.924;2023-04-12T19:21:30;29.30;30.70
21801;DHT22;11062;51.164;16.924;2023-04-12T19:23:56;27.80;32.10
21801;DHT22;11062;51.164;16.924;2023-04-12T19:26:22;29.40;33.10
21801;DHT22;11062;51.164;16.924;2023-04-12T19:28:48;29.00;32.80
21801;DHT22;11062;51.164;16.924;2023-04-12T19:33:53;29.10;30.20
21801;DHT22;11062;51.164;16.924;2023-04-12T19:41:23;28.90;31.00
21801;DHT22;11062;51.164;16.924;2023-04-12T19:43:58;28.70;31.10
21801;DHT22;11062;51.164;16.924;2023-04-12T19:53:51;28.70;31.30
21801;DHT22;11062;51.164;16.924;2023-04-12T20:08:37;28.30;32.70
21801;DHT22;11062;51.164;16.924;2023-04-12T20:18:25;28.60;32.70
21801;DHT22;11062;51.164;16.924;2023-04-12T20:20:57;28.20;35.10
21801;DHT22;11062;51.164;16.924;2023-04-12T20:23:30;26.80;33.70
